Time;durP1;ratioP1;P1;durP2;ratioP2;P2;SDS_P1;SDS_P2;PMS_P1;PMS_P2;Temp;Humidity;BMP_temperature;BMP_pressure;BME280_temperature;BME280_humidity;BME280_pressure;Samples;Min_cycle;Max_cycle;Signal;HPM_P1;HPM_P2
2022/10/14 00:03:27;;;;;;;20.77;11.95;;;12.30;99.90;;;;;;7316500;32;20167;-60
2022/10/14 00:07:28;;;;;;;19.50;12.10;;;12.40;99.90;;;;;;7323375;32;20532;-61
2022/10/14 00:11:33;;;;;;;21.10;12.85;;;12.50;99.90;;;;;;7314981;32;20544;-60
2022/10/14 00:15:39;;;;;;;15.75;12.73;;;12.50;99.90;;;;;;7324225;32;20128;-60
2022/10/14 00:19:41;;;;;;;22.02;13.60;;;12.50;99.90;;;;;;7322968;32;20103;-60
2022/10/14 00:23:44;;;;;;;19.23;13.50;;;12.50;99.90;;;;;;7311644;32;20130;-61
2022/10/14 00:27:45;;;;;;;21.75;13.07;;;12.60;99.90;;;;;;7326427;32;20091;-60
2022/10/14 00:31:47;;;;;;;18.45;14.55;;;12.50;99.90;;;;;;7321482;32;20700;-61
2022/10/14 00:35:56;;;;;;;18.12;13.88;;;12.50;99.90;;;;;;7319690;32;20130;-61
2022/10/14 00:39:58;;;;;;;17.33;14.70;;;12.50;99.90;;;;;;7323217;32;20149;-60
2022/10/14 00:44:04;;;;;;;18.60;15.73;;;12.50;99.90;;;;;;7321736;32;20111;-60
2022/10/14 00:48:07;;;;;;;21.80;16.37;;;12.50;99.90;;;;;;7311940;32;20575;-60
2022/10/14 00:52:21;;;;;;;23.17;17.55;;;12.50;99.90;;;;;;7317033;32;20183;-61
2022/10/14 00:56:27;;;;;;;26.90;18.95;;;12.50;99.90;;;;;;7316734;32;20194;-61
2022/10/14 01:00:29;;;;;;;26.13;18.93;;;12.50;99.90;;;;;;7316760;32;20125;-60
2022/10/14 01:04:31;;;;;;;24.30;18.73;;;12.50;99.90;;;;;;7312585;32;20122;-60
2022/10/14 01:08:53;;;;;;;25.05;19.17;;;12.50;99.90;;;;;;7326391;32;20841;-60
2022/10/14 01:13:30;;;;;;;23.48;18.55;;;12.50;99.90;;;;;;7315029;32;20298;-63
2022/10/14 01:17:31;;;;;;;22.48;19.05;;;12.50;99.90;;;;;;7317103;32;20122;-62
2022/10/14 01:21:36;;;;;;;27.25;19.30;;;12.40;99.90;;;;;;7307705;32;21928;-60
2022/10/14 01:26:20;;;;;;;27.45;20.17;;;12.40;99.90;;;;;;7314953;32;20121;-61
2022/10/14 01:30:30;;;;;;;26.08;20.65;;;12.50;99.90;;;;;;7315088;32;20321;-62
2022/10/14 01:34:54;;;;;;;28.05;21.80;;;12.50;99.90;;;;;;7317215;32;20186;-61
2022/10/14 01:39:01;;;;;;;25.08;20.35;;;12.50;99.90;;;;;;7318652;32;20160;-60
2022/10/14 01:43:04;;;;;;;;;;;12.40;99.90;;;;;;7319492;32;20206;-60
2022/10/14 01:47:07;;;;;;;28.70;21.50;;;12.50;99.90;;;;;;7322563;32;20011;-60
2022/10/14 01:51:15;;;;;;;29.37;22.52;;;12.40;99.90;;;;;;7318817;32;20199;-62
2022/10/14 01:55:21;;;;;;;31.15;24.02;;;12.50;99.90;;;;;;7319115;32;20219;-60
2022/10/14 01:59:23;;;;;;;31.65;24.75;;;12.40;99.90;;;;;;7322884;32;20261;-60
2022/10/14 02:03:25;;;;;;;35.15;25.70;;;12.40;99.90;;;;;;7316341;32;20115;-60
2022/10/14 02:07:35;;;;;;;38.35;26.90;;;12.40;99.90;;;;;;7322611;32;20149;-60
2022/10/14 02:11:55;;;;;;;31.27;25.23;;;12.40;99.90;;;;;;7327756;32;20108;-61
2022/10/14 02:16:37;;;;;;;31.25;23.12;;;12.50;99.90;;;;;;7320108;32;20095;-61
2022/10/14 02:21:24;;;;;;;40.20;27.13;;;12.50;99.90;;;;;;7315056;32;20222;-61
2022/10/14 02:25:34;;;;;;;37.45;28.27;;;12.40;99.90;;;;;;7265744;32;20130;-62
2022/10/14 02:29:39;;;;;;;36.95;26.30;;;12.50;99.90;;;;;;7326011;32;20100;-61
2022/10/14 02:33:44;;;;;;;28.30;22.48;;;12.50;99.90;;;;;;7323367;32;20103;-60
2022/10/14 02:37:47;;;;;;;29.00;21.73;;;12.50;99.90;;;;;;7327281;32;20107;-60
2022/10/14 02:41:48;;;;;;;25.85;21.25;;;12.40;99.90;;;;;;7318470;32;20546;-60
2022/10/14 02:46:00;;;;;;;28.08;21.50;;;12.40;99.90;;;;;;7320065;32;20380;-61
2022/10/14 02:50:03;;;;;;;30.92;22.55;;;12.40;99.90;;;;;;7320454;32;20107;-61
2022/10/14 02:54:04;;;;;;;28.70;21.58;;;12.40;99.90;;;;;;7322669;32;20099;-60
2022/10/14 02:58:06;;;;;;;31.50;22.55;;;12.40;99.90;;;;;;7321146;32;20699;-61
2022/10/14 03:02:08;;;;;;;28.42;22.13;;;12.30;99.90;;;;;;7319506;32;20523;-60
2022/10/14 03:06:10;;;;;;;31.23;22.75;;;12.30;99.90;;;;;;7313446;32;20416;-61
2022/10/14 03:10:11;;;;;;;28.40;22.42;;;12.30;99.90;;;;;;7331197;32;20217;-62
2022/10/14 03:14:13;;;;;;;30.90;23.10;;;12.30;99.90;;;;;;7324098;32;20172;-62
2022/10/14 03:18:15;;;;;;;32.15;24.50;;;12.30;99.90;;;;;;7327637;32;20528;-61
2022/10/14 03:22:17;;;;;;;30.98;22.70;;;12.30;99.90;;;;;;7323814;32;20170;-60
2022/10/14 03:26:19;;;;;;;27.80;22.73;;;12.30;99.90;;;;;;7318079;32;20099;-61
2022/10/14 03:30:20;;;;;;;29.42;22.30;;;12.30;99.90;;;;;;7324793;32;20178;-60
2022/10/14 03:34:22;;;;;;;29.35;21.25;;;12.30;99.90;;;;;;7321837;32;20634;-60
2022/10/14 03:38:24;;;;;;;28.98;21.40;;;12.30;99.90;;;;;;7322404;32;21584;-61
2022/10/14 03:42:26;;;;;;;26.35;21.00;;;12.30;99.90;;;;;;7324490;32;20126;-62
2022/10/14 03:46:27;;;;;;;27.50;20.42;;;12.30;99.90;;;;;;7325351;32;20123;-60
2022/10/14 03:50:29;;;;;;;26.10;19.48;;;12.30;99.90;;;;;;7316448;32;20178;-61
2022/10/14 03:54:31;;;;;;;23.52;18.30;;;12.30;99.90;;;;;;7324924;32;20141;-60
2022/10/14 03:58:32;;;;;;;25.17;18.27;;;12.30;99.90;;;;;;7328829;32;20720;-61
2022/10/14 04:02:34;;;;;;;22.50;16.90;;;12.40;99.90;;;;;;7318915;32;20107;-60
2022/10/14 04:06:36;;;;;;;22.00;17.90;;;12.40;99.90;;;;;;7323500;32;20122;-61
2022/10/14 04:10:38;;;;;;;23.85;17.98;;;12.30;99.90;;;;;;7319460;32;20126;-60
2022/10/14 04:14:40;;;;;;;26.15;17.77;;;12.40;99.90;;;;;;7318702;32;20099;-61
2022/10/14 04:18:41;;;;;;;27.58;18.23;;;12.40;99.90;;;;;;7317623;32;20535;-60
2022/10/14 04:22:43;;;;;;;24.37;17.52;;;12.30;99.90;;;;;;7313263;32;20187;-61
2022/10/14 04:26:45;;;;;;;19.08;16.27;;;12.30;99.90;;;;;;7322113;32;20129;-61
2022/10/14 04:30:47;;;;;;;21.70;16.30;;;12.40;99.90;;;;;;7322053;32;20108;-61
2022/10/14 04:34:48;;;;;;;18.08;14.05;;;12.40;99.90;;;;;;7321633;32;20195;-61
2022/10/14 04:38:50;;;;;;;16.50;13.85;;;12.40;99.90;;;;;;7317198;32;20104;-61
2022/10/14 04:42:56;;;;;;;17.75;14.18;;;12.40;99.90;;;;;;7317531;32;20129;-62
2022/10/14 04:46:57;;;;;;;14.87;12.95;;;12.30;99.90;;;;;;7322291;32;20129;-61
2022/10/14 04:50:59;;;;;;;16.15;13.55;;;12.40;99.90;;;;;;7315128;32;20534;-60
2022/10/14 04:55:02;;;;;;;14.77;13.10;;;12.40;99.90;;;;;;7318442;32;20233;-61
2022/10/14 04:59:04;;;;;;;17.50;13.55;;;12.40;99.90;;;;;;7318842;32;20292;-62
2022/10/14 05:03:06;;;;;;;19.77;14.80;;;12.40;99.90;;;;;;7323787;32;20198;-60
2022/10/14 05:07:08;;;;;;;18.85;16.02;;;12.40;99.90;;;;;;7309851;32;20104;-61
2022/10/14 05:11:09;;;;;;;18.62;15.63;;;12.40;99.90;;;;;;7309034;32;20516;-61
2022/10/14 05:15:11;;;;;;;18.42;14.50;;;12.40;99.90;;;;;;7317680;32;20138;-60
2022/10/14 05:19:13;;;;;;;19.80;16.55;;;12.40;99.90;;;;;;7321158;32;20099;-60
2022/10/14 05:23:15;;;;;;;18.48;15.52;;;12.50;99.90;;;;;;7316086;32;20496;-61
2022/10/14 05:27:17;;;;;;;23.17;17.20;;;12.50;99.90;;;;;;7309760;32;20213;-61
2022/10/14 05:31:18;;;;;;;18.98;15.80;;;12.40;99.90;;;;;;7319731;32;20304;-61
2022/10/14 05:35:20;;;;;;;19.27;14.70;;;12.40;99.90;;;;;;7319364;32;20520;-60
2022/10/14 05:39:42;;;;;;;17.42;14.13;;;12.40;99.90;;;;;;7323454;32;20394;-60
2022/10/14 05:43:43;;;;;;;15.80;13.23;;;12.40;99.90;;;;;;7316777;32;20197;-61
2022/10/14 05:47:45;;;;;;;16.35;13.80;;;12.50;99.90;;;;;;7313180;32;20249;-61
2022/10/14 05:51:47;;;;;;;15.30;13.68;;;12.40;99.90;;;;;;7313693;32;20542;-61
2022/10/14 05:55:49;;;;;;;19.23;13.88;;;12.40;99.90;;;;;;7321819;32;21111;-60
2022/10/14 05:59:50;;;;;;;16.15;13.32;;;12.40;99.90;;;;;;7309358;32;20131;-63
2022/10/14 06:03:52;;;;;;;15.52;13.82;;;12.40;99.90;;;;;;7318840;32;20150;-65
2022/10/14 06:07:54;;;;;;;16.83;13.88;;;12.50;99.90;;;;;;7323181;32;20261;-64
2022/10/14 06:11:55;;;;;;;18.73;14.85;;;12.50;99.90;;;;;;7326184;32;20123;-63
2022/10/14 06:16:05;;;;;;;19.65;14.75;;;12.50;99.90;;;;;;7326323;32;20217;-65
2022/10/14 06:20:07;;;;;;;20.55;14.48;;;12.50;99.90;;;;;;7325806;32;20546;-65
2022/10/14 06:24:09;;;;;;;17.77;13.32;;;12.50;99.90;;;;;;7318639;32;20123;-64
2022/10/14 06:28:11;;;;;;;19.35;13.13;;;12.40;99.90;;;;;;7302999;32;20123;-64
2022/10/14 06:32:13;;;;;;;15.45;11.43;;;12.50;99.90;;;;;;7323229;32;20198;-63
2022/10/14 06:36:15;;;;;;;18.27;12.40;;;12.50;99.90;;;;;;7325055;32;20122;-63
2022/10/14 06:40:16;;;;;;;14.73;10.60;;;12.70;99.90;;;;;;7319673;32;20587;-63
2022/10/14 06:44:19;;;;;;;13.57;10.27;;;12.70;99.90;;;;;;7321812;32;20099;-64
2022/10/14 06:48:21;;;;;;;12.77;10.23;;;12.70;99.90;;;;;;7321137;32;20129;-63
2022/10/14 06:52:23;;;;;;;13.32;9.43;;;12.70;99.90;;;;;;7325284;32;20766;-64
2022/10/14 06:56:25;;;;;;;10.13;8.45;;;12.70;99.90;;;;;;7317105;32;20603;-64
2022/10/14 07:00:27;;;;;;;11.88;8.60;;;12.70;99.90;;;;;;7320626;32;20100;-64
2022/10/14 07:04:29;;;;;;;9.52;8.27;;;12.70;99.90;;;;;;7323977;32;20108;-63
2022/10/14 07:08:31;;;;;;;9.35;8.05;;;12.80;99.90;;;;;;7321410;32;20117;-65
2022/10/14 07:12:33;;;;;;;9.93;8.18;;;12.80;99.90;;;;;;7322724;32;20129;-65
2022/10/14 07:16:35;;;;;;;8.70;7.37;;;12.90;99.90;;;;;;7318536;32;20138;-62
2022/10/14 07:20:36;;;;;;;9.82;7.85;;;12.80;99.90;;;;;;7320844;32;20104;-64
2022/10/14 07:24:38;;;;;;;10.57;8.20;;;12.90;99.90;;;;;;7321480;32;20137;-63
2022/10/14 07:28:40;;;;;;;11.45;8.45;;;12.90;99.90;;;;;;7316839;32;20108;-64
2022/10/14 07:32:42;;;;;;;12.10;7.85;;;12.90;99.90;;;;;;7315253;32;20096;-63
2022/10/14 07:36:43;;;;;;;11.25;7.45;;;12.90;99.90;;;;;;7318196;32;20274;-63
2022/10/14 07:40:58;;;;;;;7.62;6.68;;;13.00;99.90;;;;;;7321514;32;20526;-64
2022/10/14 07:45:00;;;;;;;9.00;6.53;;;13.00;99.90;;;;;;7317442;32;20111;-63
2022/10/14 07:49:11;;;;;;;10.30;6.65;;;13.10;99.90;;;;;;7318539;32;20531;-63
2022/10/14 07:53:13;;;;;;;8.52;6.18;;;13.10;99.90;;;;;;7317442;32;20638;-65
2022/10/14 07:57:15;;;;;;;8.10;6.03;;;13.20;99.90;;;;;;7317951;32;20199;-64
2022/10/14 08:01:17;;;;;;;6.15;5.55;;;13.20;99.90;;;;;;7314046;32;20260;-64
2022/10/14 08:05:19;;;;;;;7.35;5.62;;;13.20;99.90;;;;;;7314194;32;20095;-63
2022/10/14 08:09:41;;;;;;;7.15;5.50;;;13.20;99.90;;;;;;7316728;32;20126;-63
2022/10/14 08:13:43;;;;;;;6.75;5.50;;;13.20;99.90;;;;;;7312883;32;20115;-65
2022/10/14 08:17:47;;;;;;;5.75;5.05;;;13.40;99.90;;;;;;7328979;32;20233;-65
2022/10/14 08:21:48;;;;;;;6.72;5.47;;;13.30;99.90;;;;;;7318207;32;20908;-65
2022/10/14 08:25:50;;;;;;;6.28;5.43;;;13.30;99.90;;;;;;7319125;32;20212;-65
2022/10/14 08:29:53;;;;;;;7.00;5.28;;;13.40;99.90;;;;;;7319602;32;20198;-65
2022/10/14 08:33:55;;;;;;;9.25;4.95;;;13.40;99.90;;;;;;7324638;32;20669;-66
2022/10/14 08:37:58;;;;;;;4.50;4.05;;;13.50;99.90;;;;;;7316808;32;20131;-64
2022/10/14 08:42:25;;;;;;;5.15;4.50;;;13.50;99.90;;;;;;7312898;32;20624;-63
2022/10/14 08:46:41;;;;;;;7.10;4.22;;;13.60;99.90;;;;;;7312644;32;20138;-64
2022/10/14 08:51:14;;;;;;;5.68;4.00;;;13.60;99.90;;;;;;7316673;32;20590;-65
2022/10/14 08:56:05;;;;;;;4.22;3.47;;;13.60;99.90;;;;;;7316223;32;20157;-64
2022/10/14 09:00:10;;;;;;;4.25;3.50;;;13.70;99.90;;;;;;7305480;32;20146;-63
2022/10/14 09:04:13;;;;;;;8.38;3.55;;;13.80;99.90;;;;;;7319347;32;20536;-65
2022/10/14 09:08:16;;;;;;;4.30;3.50;;;13.80;99.90;;;;;;7325019;32;20190;-65
2022/10/14 09:12:25;;;;;;;5.10;3.53;;;13.90;99.90;;;;;;7314056;32;20107;-63
2022/10/14 09:16:31;;;;;;;4.72;3.40;;;14.00;99.90;;;;;;7310986;32;20790;-64
2022/10/14 09:20:33;;;;;;;8.63;3.67;;;14.00;99.90;;;;;;7316154;32;20203;-63
2022/10/14 09:24:36;;;;;;;3.85;3.15;;;14.00;99.90;;;;;;7310317;32;20133;-64
2022/10/14 09:28:40;;;;;;;5.43;3.35;;;13.90;99.90;;;;;;7312317;32;20126;-64
2022/10/14 09:32:51;;;;;;;3.20;2.67;;;14.10;99.90;;;;;;7319228;32;20130;-65
2022/10/14 09:36:53;;;;;;;4.37;2.72;;;14.10;99.90;;;;;;7318886;32;20108;-65
2022/10/14 09:40:59;;;;;;;6.00;3.60;;;14.10;99.90;;;;;;7316977;32;20508;-63
2022/10/14 09:45:12;;;;;;;4.95;3.35;;;14.10;99.90;;;;;;7317225;32;20134;-64
2022/10/14 09:49:39;;;;;;;4.18;2.78;;;14.20;99.90;;;;;;7314642;32;20194;-64
2022/10/14 09:53:47;;;;;;;3.10;2.80;;;14.20;99.90;;;;;;7312866;32;20234;-63
2022/10/14 09:58:12;;;;;;;4.32;3.08;;;14.20;99.90;;;;;;7312296;32;20277;-64
2022/10/14 10:02:23;;;;;;;5.72;3.50;;;14.30;99.90;;;;;;7307748;32;20547;-64
2022/10/14 10:06:25;;;;;;;3.30;3.00;;;14.40;99.90;;;;;;7305620;32;20694;-65
2022/10/14 10:10:30;;;;;;;8.23;3.45;;;14.50;99.90;;;;;;7312947;32;20126;-64
2022/10/14 10:14:33;;;;;;;6.00;3.55;;;14.50;99.90;;;;;;7308795;32;20714;-65
2022/10/14 10:18:34;;;;;;;6.10;3.35;;;14.50;99.90;;;;;;7311328;32;20347;-64
2022/10/14 10:22:37;;;;;;;8.95;3.90;;;14.60;99.90;;;;;;7319528;32;20586;-65
2022/10/14 10:26:39;;;;;;;4.82;3.33;;;14.50;99.90;;;;;;7308880;32;20209;-63
2022/10/14 10:30:58;;;;;;;5.28;3.08;;;14.50;99.90;;;;;;7310308;32;20126;-63
2022/10/14 10:35:28;;;;;;;6.97;3.80;;;14.50;99.90;;;;;;7326595;32;20535;-66
2022/10/14 10:39:42;;;;;;;6.20;3.55;;;14.50;99.90;;;;;;7321440;32;20100;-65
2022/10/14 10:44:27;;;;;;;4.37;3.62;;;14.50;99.90;;;;;;7310172;32;20129;-65
2022/10/14 10:48:53;;;;;;;5.70;4.00;;;14.50;99.90;;;;;;7319119;32;20099;-65
2022/10/14 10:53:02;;;;;;;7.18;4.28;;;14.50;99.90;;;;;;7319881;32;20190;-64
2022/10/14 10:57:44;;;;;;;5.45;4.40;;;14.60;99.90;;;;;;7316921;32;20187;-64
2022/10/14 11:01:55;;;;;;;5.60;4.60;;;14.70;99.90;;;;;;7316065;32;20108;-67
2022/10/14 11:06:09;;;;;;;6.00;4.07;;;14.70;99.90;;;;;;7322439;32;20510;-64
2022/10/14 11:14:53;;;;;;;6.55;4.87;;;14.90;99.90;;;;;;7323043;32;20245;-65
2022/10/14 11:19:20;;;;;;;9.85;5.35;;;14.90;99.90;;;;;;7318349;32;20217;-64
2022/10/14 11:23:40;;;;;;;6.57;5.87;;;14.90;99.90;;;;;;7316154;32;20190;-65
2022/10/14 11:28:03;;;;;;;8.15;5.78;;;14.90;99.90;;;;;;7317237;32;20734;-65
2022/10/14 11:32:23;;;;;;;8.68;7.00;;;14.90;99.90;;;;;;7323864;32;20221;-65
2022/10/14 11:36:39;;;;;;;10.05;6.75;;;14.80;99.90;;;;;;7322406;32;20646;-66
2022/10/14 11:41:17;;;;;;;11.95;8.20;;;14.80;99.90;;;;;;7313616;32;20104;-64
2022/10/14 11:45:34;;;;;;;10.30;8.00;;;14.70;99.90;;;;;;7318312;32;20127;-64
2022/10/14 11:49:44;;;;;;;12.33;9.47;;;14.80;99.90;;;;;;7315531;32;20520;-65
2022/10/14 11:53:54;;;;;;;10.18;7.70;;;14.80;99.90;;;;;;7324756;32;20199;-65
2022/10/14 11:57:59;;;;;;;12.63;9.05;;;14.70;99.90;;;;;;7316130;32;20127;-65
2022/10/14 12:02:29;;;;;;;13.93;8.45;;;14.70;99.90;;;;;;7320399;32;20157;-63
2022/10/14 12:06:45;;;;;;;12.93;9.38;;;14.70;99.90;;;;;;7316184;32;20108;-63
2022/10/14 12:10:58;;;;;;;16.27;10.25;;;14.80;99.90;;;;;;7318982;32;20104;-62
2022/10/14 12:15:05;;;;;;;13.07;9.68;;;14.80;99.90;;;;;;7314584;32;20104;-62
2022/10/14 12:19:10;;;;;;;11.48;9.23;;;14.90;99.90;;;;;;7321357;32;20095;-64
2022/10/14 12:23:35;;;;;;;13.75;9.45;;;15.00;99.90;;;;;;7319574;32;20100;-63
2022/10/14 12:27:38;;;;;;;12.50;9.10;;;14.90;99.90;;;;;;7312485;32;20613;-62
2022/10/14 12:31:39;;;;;;;12.85;9.02;;;14.90;99.90;;;;;;7321628;32;20125;-63
2022/10/14 12:35:49;;;;;;;12.40;8.50;;;15.00;99.90;;;;;;7315050;32;20868;-63
2022/10/14 12:40:12;;;;;;;13.68;9.05;;;15.00;99.90;;;;;;7319552;32;20186;-63
2022/10/14 12:44:17;;;;;;;13.43;9.20;;;15.00;99.90;;;;;;7313685;32;20126;-62
2022/10/14 12:48:22;;;;;;;10.75;8.98;;;15.10;99.90;;;;;;7317043;32;20790;-62
2022/10/14 12:52:54;;;;;;;12.57;9.73;;;15.10;99.90;;;;;;7312665;32;20108;-63
2022/10/14 12:57:03;;;;;;;11.73;9.13;;;14.90;99.90;;;;;;7307567;32;20718;-63
2022/10/14 13:01:17;;;;;;;12.13;9.25;;;15.00;99.90;;;;;;7313227;32;20269;-63
2022/10/14 13:05:41;;;;;;;11.70;9.25;;;15.00;99.90;;;;;;7319145;32;20170;-63
2022/10/14 13:09:44;;;;;;;10.77;8.70;;;15.00;99.90;;;;;;7311438;32;20516;-62
2022/10/14 13:13:48;;;;;;;12.00;8.65;;;15.00;99.90;;;;;;7319829;32;20583;-62
2022/10/14 13:17:49;;;;;;;13.13;9.27;;;15.00;99.90;;;;;;7315876;32;20253;-63
2022/10/14 13:21:52;;;;;;;13.27;8.85;;;15.10;99.90;;;;;;7316852;32;20182;-63
2022/10/14 13:26:17;;;;;;;13.80;9.35;;;15.10;99.90;;;;;;7320157;32;20204;-65
2022/10/14 13:30:22;;;;;;;14.68;10.55;;;15.20;99.90;;;;;;7306935;32;20108;-63
2022/10/14 13:34:28;;;;;;;13.60;9.90;;;15.10;99.90;;;;;;7312790;32;20095;-63
2022/10/14 13:38:32;;;;;;;13.38;10.52;;;15.00;99.90;;;;;;7314205;32;20207;-62
2022/10/14 13:42:36;;;;;;;15.77;10.93;;;15.00;99.90;;;;;;7313843;32;20769;-63
2022/10/14 13:46:41;;;;;;;15.07;11.15;;;15.00;99.90;;;;;;7311431;32;20157;-65
2022/10/14 13:50:49;;;;;;;15.23;11.43;;;15.00;99.90;;;;;;7317596;32;20189;-65
2022/10/14 13:55:12;;;;;;;14.55;11.32;;;14.90;99.90;;;;;;7320499;32;20096;-63
2022/10/14 13:59:23;;;;;;;14.75;12.15;;;14.90;99.90;;;;;;7314072;32;20125;-63
2022/10/14 14:03:50;;;;;;;15.55;11.38;;;14.80;99.90;;;;;;7316818;32;20296;-65
2022/10/14 14:07:53;;;;;;;17.70;11.90;;;14.80;99.90;;;;;;7316509;32;20199;-67
2022/10/14 14:12:14;;;;;;;14.43;11.27;;;14.80;99.90;;;;;;7317739;32;20162;-63
2022/10/14 14:16:20;;;;;;;14.63;10.32;;;14.80;99.90;;;;;;7312328;32;20135;-64
2022/10/14 14:20:25;;;;;;;15.55;10.30;;;14.80;99.90;;;;;;7318383;32;20156;-65
2022/10/14 14:24:28;;;;;;;15.80;10.77;;;14.70;99.90;;;;;;7317096;32;20606;-65
2022/10/14 14:28:31;;;;;;;15.05;11.38;;;14.70;99.90;;;;;;7319204;32;20138;-65
2022/10/14 14:32:35;;;;;;;12.02;10.70;;;14.70;99.90;;;;;;7324274;32;20096;-65
2022/10/14 14:36:40;;;;;;;13.32;10.93;;;14.70;99.90;;;;;;7331537;32;20103;-63
2022/10/14 14:41:20;;;;;;;15.60;12.82;;;14.70;99.90;;;;;;7319876;32;20173;-63
2022/10/14 14:45:24;;;;;;;17.58;12.00;;;14.80;99.90;;;;;;7319643;32;20103;-64
2022/10/14 14:49:30;;;;;;;15.80;12.50;;;14.80;99.90;;;;;;7320208;32;20215;-62
2022/10/14 14:53:32;;;;;;;15.65;12.43;;;14.80;99.90;;;;;;7318746;32;20208;-65
2022/10/14 14:57:34;;;;;;;15.25;12.05;;;14.90;99.90;;;;;;7317713;32;20224;-63
2022/10/14 15:01:40;;;;;;;15.48;11.98;;;14.90;99.90;;;;;;7318183;32;20221;-64
2022/10/14 15:05:53;;;;;;;14.02;12.52;;;14.90;99.90;;;;;;7312538;32;21075;-65
2022/10/14 15:09:59;;;;;;;14.98;13.00;;;14.90;99.90;;;;;;7330774;32;20107;-64
2022/10/14 15:14:01;;;;;;;16.40;13.35;;;14.90;99.90;;;;;;7319111;32;20186;-63
2022/10/14 15:18:18;;;;;;;16.95;13.07;;;15.00;99.90;;;;;;7315869;32;20126;-63
2022/10/14 15:22:23;;;;;;;15.13;13.53;;;14.90;99.90;;;;;;7313839;32;20100;-64
2022/10/14 15:26:35;;;;;;;17.15;13.90;;;14.70;99.90;;;;;;7318601;32;20213;-62
2022/10/14 15:30:39;;;;;;;17.77;13.75;;;14.70;99.90;;;;;;7316628;32;20335;-63
2022/10/14 15:34:41;;;;;;;17.40;13.73;;;14.70;99.90;;;;;;7313937;32;20630;-61
2022/10/14 15:38:43;;;;;;;14.60;13.05;;;14.70;99.90;;;;;;7317270;32;20457;-66
2022/10/14 15:42:46;;;;;;;15.13;13.55;;;14.60;99.90;;;;;;7319712;32;20537;-63
2022/10/14 15:51:14;;;;;;;15.30;13.80;;;14.60;99.90;;;;;;7317929;32;20198;-63
2022/10/14 15:55:19;;;;;;;15.93;14.20;;;14.60;99.90;;;;;;7323873;32;20190;-64
2022/10/14 15:59:24;;;;;;;16.65;14.82;;;14.60;99.90;;;;;;7322027;32;20103;-63
2022/10/14 16:03:26;;;;;;;16.05;13.10;;;14.70;99.90;;;;;;7321394;32;20126;-64
2022/10/14 16:07:27;;;;;;;15.60;13.80;;;14.80;99.90;;;;;;7315791;32;20234;-67
2022/10/14 16:11:30;;;;;;;14.82;13.35;;;14.70;99.90;;;;;;7314756;32;20131;-63
2022/10/14 16:15:42;;;;;;;14.15;12.65;;;14.70;99.90;;;;;;7311717;32;20175;-64
2022/10/14 16:19:44;;;;;;;14.20;12.77;;;14.70;99.90;;;;;;7316363;32;20234;-63
2022/10/14 16:23:46;;;;;;;16.08;14.52;;;14.70;99.90;;;;;;7316482;32;20135;-65
2022/10/14 16:27:49;;;;;;;17.62;15.82;;;14.60;99.90;;;;;;7319171;32;20128;-64
2022/10/14 16:31:51;;;;;;;16.98;14.90;;;14.70;99.90;;;;;;7312260;32;20140;-64
2022/10/14 16:35:56;;;;;;;15.98;13.18;;;14.60;99.90;;;;;;7316694;32;20112;-65
2022/10/14 16:39:57;;;;;;;14.77;12.85;;;14.60;99.90;;;;;;7318529;32;20112;-63
2022/10/14 16:43:59;;;;;;;17.50;13.27;;;14.50;99.90;;;;;;7319944;32;20515;-63
2022/10/14 16:48:01;;;;;;;18.95;13.27;;;14.50;99.90;;;;;;7314987;32;20107;-64
2022/10/14 16:52:03;;;;;;;16.87;12.43;;;14.40;99.90;;;;;;7316572;32;20128;-64
2022/10/14 17:00:32;;;;;;;14.87;11.83;;;14.30;99.90;;;;;;7321988;32;20125;-64
2022/10/14 17:04:33;;;;;;;17.30;11.75;;;14.20;99.90;;;;;;7318673;32;20286;-62
2022/10/14 17:08:36;;;;;;;17.40;11.40;;;14.20;99.90;;;;;;7317045;32;20099;-63
2022/10/14 17:12:38;;;;;;;17.25;12.25;;;14.20;99.90;;;;;;7314736;32;20398;-60
2022/10/14 17:16:41;;;;;;;17.60;11.73;;;14.20;99.90;;;;;;7315381;32;20445;-61
2022/10/14 17:20:42;;;;;;;14.25;10.63;;;14.10;99.90;;;;;;7311491;32;20202;-64
2022/10/14 17:24:44;;;;;;;19.62;12.88;;;14.00;99.90;;;;;;7324111;32;20100;-62
2022/10/14 17:28:47;;;;;;;17.67;12.40;;;14.00;99.90;;;;;;7317951;32;20208;-62
2022/10/14 17:32:49;;;;;;;13.02;10.23;;;13.90;99.90;;;;;;7317313;32;20733;-62
2022/10/14 17:36:52;;;;;;;18.80;12.37;;;13.90;99.90;;;;;;7315126;32;20706;-62
2022/10/14 17:41:01;;;;;;;19.15;12.02;;;13.80;99.90;;;;;;7311318;32;20111;-60
2022/10/14 17:45:03;;;;;;;14.52;11.18;;;13.70;99.90;;;;;;7309849;32;20138;-60
2022/10/14 17:49:08;;;;;;;17.83;10.68;;;13.70;99.90;;;;;;7310909;32;20240;-60
2022/10/14 17:53:11;;;;;;;13.50;11.18;;;13.70;99.90;;;;;;7312888;32;20186;-60
2022/10/14 17:57:13;;;;;;;17.25;11.43;;;13.60;99.90;;;;;;7310729;32;20746;-62
2022/10/14 18:01:15;;;;;;;15.10;10.75;;;13.60;99.90;;;;;;7311809;32;20498;-64
2022/10/14 18:05:17;;;;;;;13.20;10.32;;;13.50;99.90;;;;;;7320066;32;20194;-61
2022/10/14 18:09:18;;;;;;;16.50;11.73;;;13.40;99.90;;;;;;7305409;32;20127;-60
2022/10/14 18:13:20;;;;;;;16.20;10.27;;;13.40;99.90;;;;;;7316199;32;20130;-60
2022/10/14 18:17:22;;;;;;;16.23;11.07;;;13.40;99.90;;;;;;7314279;32;20103;-63
2022/10/14 18:21:26;;;;;;;18.55;11.88;;;13.40;99.90;;;;;;7320572;32;20104;-60
2022/10/14 18:25:27;;;;;;;16.87;12.32;;;13.30;99.90;;;;;;7324751;32;20202;-63
2022/10/14 18:29:29;;;;;;;14.13;10.60;;;13.30;99.90;;;;;;7318908;32;20103;-63
2022/10/14 18:33:33;;;;;;;16.80;11.80;;;13.30;99.90;;;;;;7323363;32;20100;-62
2022/10/14 18:37:35;;;;;;;17.52;12.52;;;13.40;99.90;;;;;;7316397;32;20179;-63
2022/10/14 18:41:36;;;;;;;17.73;12.90;;;13.40;99.90;;;;;;7309829;32;20257;-61
2022/10/14 18:45:38;;;;;;;16.37;10.98;;;13.30;99.90;;;;;;7313538;32;20100;-61
2022/10/14 18:49:40;;;;;;;18.95;12.77;;;13.30;99.90;;;;;;7308895;32;20096;-64
2022/10/14 18:53:43;;;;;;;16.23;10.75;;;13.30;99.90;;;;;;7315246;32;20489;-65
2022/10/14 18:57:45;;;;;;;18.48;11.98;;;13.30;99.90;;;;;;7321162;32;20115;-64
2022/10/14 19:01:51;;;;;;;17.42;12.35;;;13.30;99.90;;;;;;7320193;32;20202;-63
2022/10/14 19:05:56;;;;;;;17.33;12.77;;;13.30;99.90;;;;;;7316999;32;20199;-64
2022/10/14 19:09:58;;;;;;;16.00;11.95;;;13.20;99.90;;;;;;7320256;32;20107;-62
2022/10/14 19:14:04;;;;;;;17.60;12.90;;;13.20;99.90;;;;;;7319042;32;20121;-64
2022/10/14 19:18:06;;;;;;;16.35;12.55;;;13.20;99.90;;;;;;7325587;32;20704;-66
2022/10/14 19:22:09;;;;;;;15.48;11.85;;;13.20;99.90;;;;;;7322711;32;20254;-65
2022/10/14 19:26:14;;;;;;;18.37;13.13;;;13.30;99.90;;;;;;7322157;32;20575;-62
2022/10/14 19:30:20;;;;;;;16.83;13.48;;;13.30;99.90;;;;;;7314298;32;20224;-64
2022/10/14 19:34:22;;;;;;;15.35;12.32;;;13.20;99.90;;;;;;7321717;32;20732;-65
2022/10/14 19:38:28;;;;;;;15.73;12.50;;;13.20;99.90;;;;;;7325468;32;20209;-61
2022/10/14 19:42:29;;;;;;;16.37;12.10;;;13.20;99.90;;;;;;7318571;32;20129;-64
2022/10/14 19:46:31;;;;;;;20.23;13.30;;;13.20;99.90;;;;;;7319995;32;20121;-64
2022/10/14 19:50:33;;;;;;;19.85;15.20;;;13.10;99.90;;;;;;7338229;32;20108;-65
2022/10/14 19:54:35;;;;;;;20.65;14.82;;;13.10;99.90;;;;;;7317517;32;20096;-64
2022/10/14 19:58:38;;;;;;;18.62;14.20;;;13.10;99.90;;;;;;7319196;32;20510;-64
2022/10/14 20:02:45;;;;;;;20.50;13.45;;;13.00;99.90;;;;;;7321181;32;20175;-65
2022/10/14 20:06:47;;;;;;;17.77;13.95;;;13.00;99.90;;;;;;7324097;32;20642;-64
2022/10/14 20:10:49;;;;;;;18.92;12.90;;;12.90;99.90;;;;;;7315491;32;20493;-63
2022/10/14 20:14:50;;;;;;;18.12;14.07;;;12.90;99.90;;;;;;7322671;32;20602;-63
2022/10/14 20:18:52;;;;;;;20.33;16.77;;;12.90;99.90;;;;;;7324464;32;20178;-65
2022/10/14 20:22:54;;;;;;;21.85;15.15;;;12.90;99.90;;;;;;7317749;32;20099;-62
2022/10/14 20:26:56;;;;;;;18.58;13.98;;;12.90;99.90;;;;;;7313770;32;20219;-63
2022/10/14 20:30:58;;;;;;;18.80;13.57;;;12.80;99.90;;;;;;7320780;32;20198;-61
2022/10/14 20:34:59;;;;;;;22.08;12.25;;;12.80;99.90;;;;;;7318898;32;20099;-62
2022/10/14 20:39:01;;;;;;;13.82;11.15;;;12.70;99.90;;;;;;7324634;32;20180;-63
2022/10/14 20:43:03;;;;;;;16.87;11.27;;;12.70;99.90;;;;;;7326388;32;20095;-63
2022/10/14 20:47:05;;;;;;;12.82;10.77;;;12.60;99.90;;;;;;7318909;32;20104;-62
2022/10/14 20:51:10;;;;;;;19.85;12.10;;;12.60;99.90;;;;;;7324355;32;20154;-61
2022/10/14 20:55:11;;;;;;;20.23;10.75;;;12.50;99.90;;;;;;7314945;32;20782;-62
2022/10/14 20:59:13;;;;;;;15.13;10.38;;;12.50;99.90;;;;;;7318564;32;20183;-63
2022/10/14 21:03:15;;;;;;;13.88;10.82;;;12.40;99.90;;;;;;7314398;32;20126;-61
2022/10/14 21:07:19;;;;;;;16.52;10.93;;;12.40;99.90;;;;;;7319563;32;20118;-64
2022/10/14 21:11:23;;;;;;;13.62;9.75;;;12.30;99.90;;;;;;7313164;32;20518;-61
2022/10/14 21:15:27;;;;;;;13.70;9.82;;;12.30;99.90;;;;;;7316335;32;20104;-63